No particular awareness of the weather is required.    There are no Weather-warnings


Meteo18 Weather Cam more information Meteo18 Weather Cam


Thunder radar more information blitzortung!


Rain radar more information rain snow radar


Visit our other weather sites:

Template documentation
and downloads

And another site



Weather Underground History page Text

Daily Summary for April 24, 2016 Units:  Metric    English   Both
« Previous Day
Next Day »
Daily Weekly Monthly Yearly Custom
  High: Low: Average:
Temperature: 11.4 °C 0.1 °C 6.3 °C
Dew Point: 4.1 °C -1.1 °C 2.1 °C
Humidity: 93 % 50 % 76 %
Wind Speed: 16.1 km/h 0.0 km/h 2.6 km/h
Wind Gust: 19.3 km/h - -
Wind:- - ENE
Pressure: 1018.8 hPa 1016.8 hPa -
Precipitation: 0.0 mm    
Historical Graphs
 
 
Tabular Data for April 24, 2016
Time Temperature Dew Point Pressure Wind Wind Speed Wind Gust Humidity Rainfall Rate (Hourly)
00:02 6.8 °C 3.8 °C 1016.8 hPa NE 4.8 km/h 11.3 km/h 81 % 0.0 mm
00:07 6.8 °C 3.9 °C 1017.2 hPa East 3.2 km/h 14.5 km/h 82 % 0.0 mm
00:12 6.7 °C 3.8 °C 1017.2 hPa East 3.2 km/h 14.5 km/h 82 % 0.0 mm
00:17 6.7 °C 3.8 °C 1017.2 hPa East 3.2 km/h 14.5 km/h 82 % 0.0 mm
00:22 6.6 °C 3.9 °C 1017.2 hPa East 3.2 km/h 14.5 km/h 83 % 0.0 mm
00:27 6.6 °C 3.9 °C 1017.2 hPa NE 1.6 km/h 14.5 km/h 83 % 0.0 mm
00:32 6.5 °C 3.6 °C 1017.2 hPa East 4.8 km/h 12.9 km/h 82 % 0.0 mm
00:37 6.4 °C 3.6 °C 1017.2 hPa NE 9.7 km/h 12.9 km/h 82 % 0.0 mm
00:42 6.4 °C 3.7 °C 1017.2 hPa NE 1.6 km/h 12.9 km/h 83 % 0.0 mm
00:47 6.3 °C 3.5 °C 1017.2 hPa NE 3.2 km/h 11.3 km/h 82 % 0.0 mm
00:57 6.3 °C 3.5 °C 1017.2 hPa NNE 16.1 km/h 16.1 km/h 82 % 0.0 mm
01:02 6.3 °C 3.6 °C 1017.2 hPa ENE 4.8 km/h 12.9 km/h 83 % 0.0 mm
01:07 6.2 °C 3.5 °C 1017.2 hPa NE 3.2 km/h 16.1 km/h 83 % 0.0 mm
01:12 6.2 °C 3.5 °C 1017.2 hPa NNE 1.6 km/h 16.1 km/h 83 % 0.0 mm
01:17 6.2 °C 3.5 °C 1017.5 hPa NE 3.2 km/h 11.3 km/h 83 % 0.0 mm
01:22 6.2 °C 3.5 °C 1017.2 hPa ENE 1.6 km/h 11.3 km/h 83 % 0.0 mm
01:27 6.1 °C 3.3 °C 1017.5 hPa NE 4.8 km/h 9.7 km/h 82 % 0.0 mm
01:32 6.1 °C 3.4 °C 1017.5 hPa ESE 3.2 km/h 9.7 km/h 83 % 0.0 mm
01:37 6.1 °C 3.4 °C 1017.5 hPa NE 4.8 km/h 9.7 km/h 83 % 0.0 mm
01:42 6.0 °C 3.2 °C 1017.5 hPa NE 1.6 km/h 9.7 km/h 82 % 0.0 mm
01:47 6.0 °C 3.2 °C 1017.5 hPa East 3.2 km/h 9.7 km/h 82 % 0.0 mm
01:52 5.9 °C 3.1 °C 1017.5 hPa ESE 1.6 km/h 9.7 km/h 82 % 0.0 mm
01:57 5.9 °C 2.9 °C 1017.5 hPa East 1.6 km/h 12.9 km/h 81 % 0.0 mm
02:02 5.9 °C 3.1 °C 1017.5 hPa ESE 1.6 km/h 12.9 km/h 82 % 0.0 mm
02:07 5.8 °C 3.0 °C 1017.5 hPa NE 4.8 km/h 12.9 km/h 82 % 0.0 mm
02:17 5.6 °C 2.9 °C 1017.5 hPa NNE 4.8 km/h 11.3 km/h 83 % 0.0 mm
02:22 5.6 °C 2.8 °C 1017.5 hPa ENE 4.8 km/h 11.3 km/h 82 % 0.0 mm
02:32 5.5 °C 2.5 °C 1017.5 hPa NE 3.2 km/h 9.7 km/h 81 % 0.0 mm
02:37 5.4 °C 2.2 °C 1017.5 hPa ENE 4.8 km/h 12.9 km/h 80 % 0.0 mm
02:42 5.4 °C 2.1 °C 1017.5 hPa NE 4.8 km/h 12.9 km/h 79 % 0.0 mm
02:47 5.4 °C 2.2 °C 1017.5 hPa ENE 4.8 km/h 17.7 km/h 80 % 0.0 mm
02:57 5.2 °C 2.5 °C 1017.5 hPa ENE 4.8 km/h 17.7 km/h 83 % 0.0 mm
03:02 5.0 °C 2.4 °C 1017.5 hPa ENE 8.0 km/h 17.7 km/h 83 % 0.0 mm
03:07 4.9 °C 2.3 °C 1017.5 hPa ENE 6.4 km/h 11.3 km/h 83 % 0.0 mm
03:12 4.8 °C 2.0 °C 1017.5 hPa East 3.2 km/h 11.3 km/h 82 % 0.0 mm
03:17 4.7 °C 1.7 °C 1017.5 hPa NE 8.0 km/h 19.3 km/h 81 % 0.0 mm
03:22 4.6 °C 1.6 °C 1017.5 hPa NE 9.7 km/h 19.3 km/h 81 % 0.0 mm
03:27 4.4 °C 1.3 °C 1017.5 hPa NE 6.4 km/h 19.3 km/h 80 % 0.0 mm
03:32 4.1 °C 1.3 °C 1017.5 hPa East 1.6 km/h 19.3 km/h 82 % 0.0 mm
03:37 3.8 °C 1.2 °C 1017.5 hPa NE 4.8 km/h 14.5 km/h 83 % 0.0 mm
03:42 3.6 °C 1.0 °C 1017.5 hPa NE 6.4 km/h 14.5 km/h 83 % 0.0 mm
03:47 3.4 °C 1.0 °C 1017.5 hPa ENE 4.8 km/h 9.7 km/h 84 % 0.0 mm
03:52 3.3 °C 0.9 °C 1017.5 hPa ENE 3.2 km/h 9.7 km/h 84 % 0.0 mm
03:57 3.2 °C 0.8 °C 1017.5 hPa NE 8.0 km/h 9.7 km/h 84 % 0.0 mm
04:02 3.1 °C 0.8 °C 1017.5 hPa NE 1.6 km/h 9.7 km/h 85 % 0.0 mm
04:07 2.9 °C 0.6 °C 1017.5 hPa NE 4.8 km/h 9.7 km/h 85 % 0.0 mm
04:12 2.8 °C 0.5 °C 1017.5 hPa NE 3.2 km/h 9.7 km/h 85 % 0.0 mm
04:17 2.9 °C 0.5 °C 1017.5 hPa NNE 6.4 km/h 11.3 km/h 84 % 0.0 mm
04:22 2.8 °C 0.4 °C 1017.5 hPa NE 3.2 km/h 11.3 km/h 84 % 0.0 mm
04:27 2.6 °C 0.3 °C 1017.8 hPa Calm   11.3 km/h 85 % 0.0 mm
04:32 2.4 °C 0.3 °C 1017.5 hPa ENE 1.6 km/h 11.3 km/h 86 % 0.0 mm
04:37 2.2 °C 0.3 °C 1017.5 hPa NE 1.6 km/h 9.7 km/h 87 % 0.0 mm
04:42 2.2 °C 0.3 °C 1017.5 hPa ENE 1.6 km/h 9.7 km/h 87 % 0.0 mm
04:47 2.1 °C 0.2 °C 1017.5 hPa Calm   6.4 km/h 87 % 0.0 mm
04:52 1.9 °C 0.1 °C 1017.8 hPa NE 1.6 km/h 6.4 km/h 88 % 0.0 mm
04:57 1.9 °C 0.1 °C 1017.5 hPa NE 1.6 km/h 6.4 km/h 88 % 0.0 mm
05:12 1.7 °C -0.1 °C 1017.5 hPa Calm   6.4 km/h 88 % 0.0 mm
05:22 1.6 °C -0.2 °C 1017.8 hPa NE 1.6 km/h 4.8 km/h 88 % 0.0 mm
05:32 1.4 °C -0.2 °C 1017.8 hPa NE 1.6 km/h 3.2 km/h 89 % 0.0 mm
05:37 1.4 °C -0.2 °C 1017.8 hPa NE 1.6 km/h 3.2 km/h 89 % 0.0 mm
05:52 1.2 °C -0.3 °C 1017.8 hPa Calm   4.8 km/h 90 % 0.0 mm
06:02 1.1 °C -0.4 °C 1017.8 hPa ENE 1.6 km/h 3.2 km/h 90 % 0.0 mm
06:07 1.1 °C -0.4 °C 1017.8 hPa Calm   3.2 km/h 90 % 0.0 mm
06:12 1.1 °C -0.4 °C 1017.8 hPa Calm   3.2 km/h 90 % 0.0 mm
06:17 1.0 °C -0.5 °C 1017.8 hPa Calm   3.2 km/h 90 % 0.0 mm
06:22 0.9 °C -0.6 °C 1017.8 hPa Calm   3.2 km/h 90 % 0.0 mm
06:32 0.8 °C -0.7 °C 1017.8 hPa Calm   3.2 km/h 90 % 0.0 mm
06:47 0.4 °C -1.0 °C 1017.8 hPa Calm   1.6 km/h 90 % 0.0 mm
06:52 0.4 °C -1.0 °C 1017.8 hPa Calm   1.6 km/h 90 % 0.0 mm
07:02 0.2 °C -1.1 °C 1017.8 hPa Calm   1.6 km/h 91 % 0.0 mm
07:12 0.1 °C -1.0 °C 1018.2 hPa Calm   1.6 km/h 92 % 0.0 mm
07:17 0.1 °C -1.0 °C 1018.2 hPa Calm     92 % 0.0 mm
07:22 0.1 °C -1.0 °C 1018.2 hPa Calm     92 % 0.0 mm
07:32 0.4 °C -0.6 °C 1018.5 hPa Calm     93 % 0.0 mm
07:37 0.7 °C -0.3 °C 1018.5 hPa East 3.2 km/h 3.2 km/h 93 % 0.0 mm
07:42 1.1 °C -0.1 °C 1018.5 hPa ESE 1.6 km/h 1.6 km/h 92 % 0.0 mm
07:47 1.4 °C -0.1 °C 1018.5 hPa NNE 4.8 km/h 8.0 km/h 90 % 0.0 mm
07:52 1.6 °C 0.1 °C 1018.5 hPa NNE 1.6 km/h 8.0 km/h 90 % 0.0 mm
07:57 1.8 °C 0.2 °C 1018.5 hPa Calm   11.3 km/h 89 % 0.0 mm
08:02 1.9 °C 0.3 °C 1018.5 hPa NE 1.6 km/h 11.3 km/h 89 % 0.0 mm
08:12 2.2 °C 0.4 °C 1018.5 hPa Calm   11.3 km/h 88 % 0.0 mm
08:17 2.3 °C 0.4 °C 1018.5 hPa NNE 4.8 km/h 9.7 km/h 87 % 0.0 mm
08:22 2.5 °C 0.6 °C 1018.5 hPa NE 1.6 km/h 9.7 km/h 87 % 0.0 mm
08:32 2.8 °C 0.7 °C 1018.5 hPa Calm   9.7 km/h 86 % 0.0 mm
08:42 3.1 °C 0.8 °C 1018.5 hPa East 6.4 km/h 9.7 km/h 85 % 0.0 mm
08:47 3.2 °C 0.9 °C 1018.5 hPa NE 4.8 km/h 12.9 km/h 85 % 0.0 mm
08:52 3.3 °C 0.9 °C 1018.8 hPa ESE 1.6 km/h 12.9 km/h 84 % 0.0 mm
09:02 3.6 °C 1.2 °C 1018.8 hPa NNE 1.6 km/h 12.9 km/h 84 % 0.0 mm
09:12 3.9 °C 1.4 °C 1018.8 hPa NE 9.7 km/h 11.3 km/h 84 % 0.0 mm
09:17 4.2 °C 1.6 °C 1018.8 hPa NE 3.2 km/h 11.3 km/h 83 % 0.0 mm
09:22 4.4 °C 1.6 °C 1018.8 hPa ENE 1.6 km/h 11.3 km/h 82 % 0.0 mm
09:32 4.8 °C 1.8 °C 1018.8 hPa Calm   12.9 km/h 81 % 0.0 mm
09:42 5.4 °C 2.1 °C 1018.8 hPa East 1.6 km/h 16.1 km/h 79 % 0.0 mm
09:52 5.9 °C 2.2 °C 1018.8 hPa ENE 3.2 km/h 14.5 km/h 77 % 0.0 mm
09:57 6.1 °C 1.8 °C 1018.8 hPa NE 4.8 km/h 16.1 km/h 74 % 0.0 mm
10:02 6.2 °C 1.7 °C 1018.8 hPa East 4.8 km/h 16.1 km/h 73 % 0.0 mm
10:07 6.4 °C 2.1 °C 1018.8 hPa NNE 4.8 km/h 16.1 km/h 74 % 0.0 mm
10:12 6.6 °C 1.7 °C 1018.5 hPa NE 6.4 km/h 16.1 km/h 71 % 0.0 mm
10:17 6.7 °C 1.8 °C 1018.8 hPa East 3.2 km/h 17.7 km/h 71 % 0.0 mm
10:22 6.8 °C 1.5 °C 1018.8 hPa SE 1.6 km/h 17.7 km/h 69 % 0.0 mm
10:27 7.1 °C 1.6 °C 1018.8 hPa NE 1.6 km/h 14.5 km/h 68 % 0.0 mm
10:32 7.3 °C 1.6 °C 1018.8 hPa NE 1.6 km/h 14.5 km/h 67 % 0.0 mm
10:37 7.5 °C 1.6 °C 1018.8 hPa NE 8.0 km/h 11.3 km/h 66 % 0.0 mm
10:42 7.7 °C 2.2 °C 1018.8 hPa NE 6.4 km/h 11.3 km/h 68 % 0.0 mm
10:47 7.8 °C 1.8 °C 1018.8 hPa ENE 3.2 km/h 11.3 km/h 66 % 0.0 mm
10:52 7.8 °C 1.8 °C 1018.8 hPa SE 6.4 km/h 11.3 km/h 66 % 0.0 mm
10:57 7.7 °C 1.5 °C 1018.8 hPa NE 3.2 km/h 16.1 km/h 65 % 0.0 mm
11:02 7.6 °C 0.8 °C 1018.8 hPa NE 4.8 km/h 16.1 km/h 62 % 0.0 mm
11:07 7.6 °C 1.9 °C 1018.8 hPa ENE 1.6 km/h 16.1 km/h 67 % 0.0 mm
11:12 7.9 °C 1.9 °C 1018.8 hPa SSE 1.6 km/h 16.1 km/h 66 % 0.0 mm
11:17 8.0 °C 1.6 °C 1018.8 hPa ENE 3.2 km/h 14.5 km/h 64 % 0.0 mm
11:22 8.1 °C 1.5 °C 1018.8 hPa NE 6.4 km/h 14.5 km/h 63 % 0.0 mm
11:27 8.1 °C 1.5 °C 1018.8 hPa NW 1.6 km/h 14.5 km/h 63 % 0.0 mm
11:37 8.2 °C 2.2 °C 1018.8 hPa ENE 1.6 km/h 11.3 km/h 66 % 0.0 mm
11:42 8.4 °C 2.0 °C 1018.8 hPa NE 4.8 km/h 11.3 km/h 64 % 0.0 mm
11:47 8.6 °C 2.6 °C 1018.8 hPa NE 6.4 km/h 11.3 km/h 66 % 0.0 mm
11:57 9.1 °C 2.4 °C 1018.8 hPa NNE 9.7 km/h 17.7 km/h 63 % 0.0 mm
12:02 9.2 °C 2.5 °C 1018.8 hPa ENE 4.8 km/h 17.7 km/h 63 % 0.0 mm
12:12 9.1 °C 1.7 °C 1018.8 hPa SSE 6.4 km/h 17.7 km/h 60 % 0.0 mm
12:17 9.1 °C 1.3 °C 1018.8 hPa NE 4.8 km/h 17.7 km/h 58 % 0.0 mm
12:22 8.8 °C 1.7 °C 1018.8 hPa NE 3.2 km/h 16.1 km/h 61 % 0.0 mm
12:27 8.7 °C 1.6 °C 1018.8 hPa NE 4.8 km/h 16.1 km/h 61 % 0.0 mm
12:32 9.2 °C 2.5 °C 1018.8 hPa NE 3.2 km/h 16.1 km/h 63 % 0.0 mm
12:37 9.7 °C 1.8 °C 1018.8 hPa ENE 6.4 km/h 16.1 km/h 58 % 0.0 mm
12:42 9.8 °C 1.9 °C 1018.8 hPa NE 1.6 km/h 9.7 km/h 58 % 0.0 mm
12:47 9.9 °C 3.0 °C 1018.8 hPa SE 3.2 km/h 11.3 km/h 62 % 0.0 mm
12:52 9.7 °C 1.3 °C 1018.5 hPa ENE 8.0 km/h 11.3 km/h 56 % 0.0 mm
12:57 9.7 °C 1.8 °C 1018.5 hPa SE 3.2 km/h 14.5 km/h 58 % 0.0 mm
13:02 9.9 °C 2.0 °C 1018.5 hPa NNE 6.4 km/h 14.5 km/h 58 % 0.0 mm
13:07 9.8 °C 1.7 °C 1018.5 hPa NNE 4.8 km/h 14.5 km/h 57 % 0.0 mm
13:12 10.3 °C 1.4 °C 1018.2 hPa NE 1.6 km/h 14.5 km/h 54 % 0.0 mm
13:17 10.6 °C 2.2 °C 1018.2 hPa Calm   9.7 km/h 56 % 0.0 mm
13:22 10.6 °C 2.4 °C 1018.2 hPa NE 4.8 km/h 9.7 km/h 57 % 0.0 mm
13:27 10.3 °C 2.9 °C 1018.2 hPa ENE 9.7 km/h 12.9 km/h 60 % 0.0 mm
13:32 10.3 °C 1.9 °C 1017.8 hPa NE 1.6 km/h 12.9 km/h 56 % 0.0 mm
13:37 10.1 °C 2.2 °C 1017.8 hPa Calm   17.7 km/h 58 % 0.0 mm
13:47 9.8 °C 1.4 °C 1017.8 hPa East 3.2 km/h 8.0 km/h 56 % 0.0 mm
13:52 9.8 °C 1.2 °C 1017.8 hPa Calm   8.0 km/h 55 % 0.0 mm
13:57 10.9 °C 3.2 °C 1017.8 hPa NE 3.2 km/h 9.7 km/h 59 % 0.0 mm
14:02 11.4 °C 1.9 °C 1017.8 hPa Calm   9.7 km/h 52 % 0.0 mm
14:07 11.3 °C 1.2 °C 1017.5 hPa NE 3.2 km/h 6.4 km/h 50 % 0.0 mm
14:12 10.9 °C 1.4 °C 1017.5 hPa NE 1.6 km/h 6.4 km/h 52 % 0.0 mm
14:17 10.4 °C 0.4 °C 1017.5 hPa Calm   11.3 km/h 50 % 0.0 mm
14:22 10.7 °C 2.5 °C 1017.5 hPa Calm   11.3 km/h 57 % 0.0 mm
14:27 11.1 °C 2.1 °C 1017.5 hPa NE 3.2 km/h 11.3 km/h 54 % 0.0 mm
14:32 11.0 °C 1.5 °C 1017.5 hPa South 1.6 km/h 11.3 km/h 52 % 0.0 mm
14:37 10.8 °C 1.9 °C 1017.5 hPa NE 3.2 km/h 11.3 km/h 54 % 0.0 mm
14:42 10.8 °C 1.9 °C 1017.5 hPa NNE 4.8 km/h 11.3 km/h 54 % 0.0 mm
14:52 10.4 °C 2.5 °C 1017.5 hPa Calm   8.0 km/h 58 % 0.0 mm
14:57 10.3 °C 1.4 °C 1017.5 hPa Calm   6.4 km/h 54 % 0.0 mm
15:02 10.3 °C 1.7 °C 1017.5 hPa NNE 3.2 km/h 6.4 km/h 55 % 0.0 mm
15:12 10.2 °C 1.8 °C 1017.5 hPa Calm   8.0 km/h 56 % 0.0 mm
15:17 10.2 °C 2.8 °C 1017.5 hPa Calm   8.0 km/h 60 % 0.0 mm
15:22 10.1 °C 2.2 °C 1017.5 hPa Calm   8.0 km/h 58 % 0.0 mm
15:32 10.4 °C 2.7 °C 1017.5 hPa WSW 3.2 km/h 6.4 km/h 59 % 0.0 mm
15:37 10.3 °C 1.7 °C 1017.5 hPa East 3.2 km/h 11.3 km/h 55 % 0.0 mm
15:42 10.2 °C 1.8 °C 1017.5 hPa ENE 1.6 km/h 11.3 km/h 56 % 0.0 mm
15:47 9.9 °C 2.0 °C 1017.5 hPa NE 4.8 km/h 12.9 km/h 58 % 0.0 mm
15:52 9.8 °C 2.2 °C 1017.5 hPa NNE 1.6 km/h 12.9 km/h 59 % 0.0 mm
15:57 9.9 °C 2.7 °C 1017.5 hPa NE 6.4 km/h 12.9 km/h 61 % 0.0 mm
16:02 9.6 °C 1.7 °C 1017.5 hPa Calm   12.9 km/h 58 % 0.0 mm
16:07 9.5 °C 2.8 °C 1017.5 hPa SW 4.8 km/h 12.9 km/h 63 % 0.0 mm
16:12 9.5 °C 3.5 °C 1017.5 hPa SE 3.2 km/h 12.9 km/h 66 % 0.0 mm
16:17 9.4 °C 2.5 °C 1017.5 hPa NNE 6.4 km/h 16.1 km/h 62 % 0.0 mm
16:22 9.7 °C 3.4 °C 1017.2 hPa SW 3.2 km/h 16.1 km/h 65 % 0.0 mm
16:32 9.5 °C 3.0 °C 1017.2 hPa Calm   16.1 km/h 64 % 0.0 mm
16:37 9.2 °C 2.5 °C 1017.2 hPa Calm   9.7 km/h 63 % 0.0 mm
16:42 8.9 °C 2.7 °C 1017.2 hPa ENE 1.6 km/h 9.7 km/h 65 % 0.0 mm
16:47 8.6 °C 2.6 °C 1017.2 hPa Calm   11.3 km/h 66 % 0.0 mm
16:52 8.8 °C 3.2 °C 1017.2 hPa SSW 1.6 km/h 11.3 km/h 68 % 0.0 mm
16:57 9.2 °C 3.0 °C 1017.2 hPa Calm   8.0 km/h 65 % 0.0 mm
17:02 9.4 °C 2.9 °C 1017.2 hPa SW 1.6 km/h 8.0 km/h 64 % 0.0 mm
17:07 9.7 °C 3.7 °C 1017.2 hPa East 6.4 km/h 6.4 km/h 66 % 0.0 mm
17:12 9.4 °C 2.3 °C 1016.8 hPa Calm   6.4 km/h 61 % 0.0 mm
17:17 9.3 °C 2.2 °C 1016.8 hPa ESE 4.8 km/h 17.7 km/h 61 % 0.0 mm
17:22 9.2 °C 2.3 °C 1017.2 hPa SSW 1.6 km/h 17.7 km/h 62 % 0.0 mm
17:32 8.8 °C 2.4 °C 1017.2 hPa Calm   17.7 km/h 64 % 0.0 mm
17:42 8.2 °C 2.4 °C 1017.2 hPa Calm   9.7 km/h 67 % 0.0 mm
17:47 8.0 °C 2.5 °C 1017.2 hPa NNW 1.6 km/h 8.0 km/h 68 % 0.0 mm
17:52 7.8 °C 2.9 °C 1017.2 hPa Calm   8.0 km/h 71 % 0.0 mm
17:57 7.6 °C 3.1 °C 1017.2 hPa SE 1.6 km/h 8.0 km/h 73 % 0.0 mm
18:02 7.3 °C 3.2 °C 1017.2 hPa SW 1.6 km/h 8.0 km/h 75 % 0.0 mm
18:07 7.2 °C 3.3 °C 1017.2 hPa SW 1.6 km/h 4.8 km/h 76 % 0.0 mm
18:12 7.1 °C 3.3 °C 1017.2 hPa Calm   4.8 km/h 77 % 0.0 mm
18:17 6.9 °C 3.3 °C 1017.2 hPa Calm   4.8 km/h 78 % 0.0 mm
18:22 6.8 °C 3.4 °C 1017.2 hPa Calm   3.2 km/h 79 % 0.0 mm
18:27 6.9 °C 3.7 °C 1017.2 hPa WSW 1.6 km/h 3.2 km/h 80 % 0.0 mm
18:32 6.9 °C 3.7 °C 1017.2 hPa South 1.6 km/h 3.2 km/h 80 % 0.0 mm
18:37 7.0 °C 3.4 °C 1017.2 hPa ESE 3.2 km/h 3.2 km/h 78 % 0.0 mm
18:42 7.0 °C 3.6 °C 1017.2 hPa Calm   6.4 km/h 79 % 0.0 mm
18:47 7.0 °C 3.8 °C 1017.2 hPa SE 1.6 km/h 8.0 km/h 80 % 0.0 mm
18:52 7.0 °C 3.4 °C 1016.8 hPa Calm   8.0 km/h 78 % 0.0 mm
18:57 7.0 °C 3.6 °C 1017.2 hPa SE 1.6 km/h 4.8 km/h 79 % 0.0 mm
19:02 7.0 °C 3.6 °C 1016.8 hPa Calm   4.8 km/h 79 % 0.0 mm
19:07 7.2 °C 3.8 °C 1016.8 hPa Calm   3.2 km/h 79 % 0.0 mm
19:12 7.3 °C 4.1 °C 1016.8 hPa Calm   3.2 km/h 80 % 0.0 mm
19:17 7.4 °C 3.8 °C 1017.2 hPa Calm   4.8 km/h 78 % 0.0 mm
19:22 7.4 °C 3.6 °C 1016.8 hPa Calm   4.8 km/h 77 % 0.0 mm
19:27 7.4 °C 3.6 °C 1017.2 hPa Calm   8.0 km/h 77 % 0.0 mm
19:32 7.2 °C 3.3 °C 1017.2 hPa Calm   8.0 km/h 76 % 0.0 mm
19:37 7.0 °C 3.4 °C 1017.2 hPa Calm   8.0 km/h 78 % 0.0 mm
19:47 6.8 °C 3.2 °C 1017.2 hPa NE 1.6 km/h 6.4 km/h 78 % 0.0 mm
19:52 6.8 °C 3.4 °C 1017.2 hPa ENE 1.6 km/h 6.4 km/h 79 % 0.0 mm
19:57 6.7 °C 3.3 °C 1017.2 hPa NE 1.6 km/h 9.7 km/h 79 % 0.0 mm
20:02 6.6 °C 3.4 °C 1017.2 hPa Calm   9.7 km/h 80 % 0.0 mm
20:07 6.5 °C 3.3 °C 1017.2 hPa NE 4.8 km/h 9.7 km/h 80 % 0.0 mm
20:12 6.4 °C 3.6 °C 1017.2 hPa NE 3.2 km/h 9.7 km/h 82 % 0.0 mm
20:17 6.4 °C 3.6 °C 1017.2 hPa NE 1.6 km/h 8.0 km/h 82 % 0.0 mm
20:22 6.3 °C 3.5 °C 1017.2 hPa ENE 4.8 km/h 8.0 km/h 82 % 0.0 mm
20:27 6.3 °C 3.5 °C 1017.2 hPa NE 1.6 km/h 8.0 km/h 82 % 0.0 mm
20:32 6.3 °C 3.5 °C 1017.5 hPa Calm   8.0 km/h 82 % 0.0 mm
20:37 6.3 °C 3.6 °C 1017.2 hPa Calm   8.0 km/h 83 % 0.0 mm
20:42 6.3 °C 3.6 °C 1017.5 hPa Calm   8.0 km/h 83 % 0.0 mm
20:47 6.2 °C 3.5 °C 1017.5 hPa NE 1.6 km/h 6.4 km/h 83 % 0.0 mm
20:52 6.2 °C 3.7 °C 1017.5 hPa ENE 1.6 km/h 6.4 km/h 84 % 0.0 mm
20:57 6.2 °C 3.7 °C 1017.5 hPa Calm   3.2 km/h 84 % 0.0 mm
21:02 6.1 °C 3.6 °C 1017.8 hPa NE 1.6 km/h 3.2 km/h 84 % 0.0 mm
21:12 5.9 °C 3.6 °C 1017.8 hPa NE 1.6 km/h 4.8 km/h 85 % 0.0 mm
21:17 5.8 °C 3.6 °C 1017.8 hPa Calm   4.8 km/h 86 % 0.0 mm
21:27 5.7 °C 3.7 °C 1017.8 hPa Calm   3.2 km/h 87 % 0.0 mm
21:32 5.6 °C 3.4 °C 1017.8 hPa Calm   3.2 km/h 86 % 0.0 mm
21:37 5.5 °C 3.5 °C 1017.8 hPa North 3.2 km/h 9.7 km/h 87 % 0.0 mm
21:42 5.4 °C 3.4 °C 1017.8 hPa NE 4.8 km/h 9.7 km/h 87 % 0.0 mm
21:47 5.4 °C 3.6 °C 1018.2 hPa ENE 1.6 km/h 9.7 km/h 88 % 0.0 mm
21:57 5.2 °C 3.5 °C 1018.2 hPa Calm   6.4 km/h 89 % 0.0 mm
22:02 5.2 °C 3.5 °C 1018.5 hPa Calm   6.4 km/h 89 % 0.0 mm
22:07 5.2 °C 3.5 °C 1018.5 hPa Calm   4.8 km/h 89 % 0.0 mm
22:12 5.1 °C 3.4 °C 1018.5 hPa Calm   4.8 km/h 89 % 0.0 mm
22:17 5.0 °C 3.3 °C 1018.5 hPa Calm   3.2 km/h 89 % 0.0 mm
22:32 4.8 °C 3.3 °C 1018.5 hPa NNE 4.8 km/h 4.8 km/h 90 % 0.0 mm
22:37 4.8 °C 3.5 °C 1018.5 hPa NE 1.6 km/h 6.4 km/h 91 % 0.0 mm
22:57 5.1 °C 3.8 °C 1018.8 hPa NE 3.2 km/h 6.4 km/h 91 % 0.0 mm
23:02 4.8 °C 2.7 °C 1018.8 hPa NE 8.0 km/h 8.0 km/h 86 % 0.0 mm
23:07 4.7 °C 2.6 °C 1018.8 hPa NE 1.6 km/h 11.3 km/h 86 % 0.0 mm
23:12 4.6 °C 2.5 °C 1018.8 hPa Calm   11.3 km/h 86 % 0.0 mm
23:17 4.5 °C 2.4 °C 1018.8 hPa Calm   8.0 km/h 86 % 0.0 mm
23:22 4.4 °C 2.3 °C 1018.8 hPa SE 3.2 km/h 8.0 km/h 86 % 0.0 mm
23:27 4.3 °C 2.2 °C 1018.8 hPa NE 3.2 km/h 11.3 km/h 86 % 0.0 mm
23:32 4.2 °C 2.2 °C 1018.8 hPa Calm   11.3 km/h 87 % 0.0 mm
23:42 4.1 °C 2.1 °C 1018.8 hPa NE 1.6 km/h 6.4 km/h 87 % 0.0 mm
23:47 4.1 °C 2.3 °C 1018.8 hPa NE 1.6 km/h 3.2 km/h 88 % 0.0 mm
23:52 4.1 °C 2.3 °C 1018.8 hPa Calm   3.2 km/h 88 % 0.0 mm
23:57 4.1 °C 2.3 °C 1018.8 hPa Calm   3.2 km/h 88 % 0.0 mm
Meteo18
Compliments of Weather Underground - 4 mb

Script developed by  Jim McMurry - jmcmurry@mwt.net Adapted for the template by  Wim van der Kuil - Leuven-Template.eu

You find our weather info also at:

European Weather Network

Weather Underground

Equipment we use:

Weather-station
Davis Vue

Weather-program
Meteohub

Weather-server
Raspberry PI 2 B+

Provider
1 and 1

Davis Vue

Meteohub

Raspberry PI 2 B+

1 and 1